createdAt,value
2017-03-27T00:00:37.354Z,56.99
2017-03-27T00:01:18.063Z,57.28
2017-03-27T00:01:58.752Z,57.19
2017-03-27T00:02:39.397Z,57.09
2017-03-27T00:03:20.097Z,57.19
2017-03-27T00:04:00.778Z,57.28
2017-03-27T00:04:41.421Z,57.38
2017-03-27T00:05:22.120Z,56.99
2017-03-27T00:06:02.748Z,57.28
2017-03-27T00:06:43.375Z,57.28
2017-03-27T00:07:24.073Z,57.57
2017-03-27T00:08:04.780Z,57.38
2017-03-27T00:08:45.454Z,57.48
2017-03-27T00:09:26.098Z,57.19
2017-03-27T00:10:06.812Z,57.19
2017-03-27T00:10:47.436Z,57.28
2017-03-27T00:11:28.065Z,57.48
2017-03-27T00:12:08.778Z,57.57
2017-03-27T00:12:49.488Z,57.48
2017-03-27T00:13:30.119Z,57.57
2017-03-27T00:14:10.815Z,57.38
2017-03-27T00:14:51.524Z,56.99
2017-03-27T00:15:32.176Z,57.19
2017-03-27T00:16:12.817Z,57.28
2017-03-27T00:16:53.489Z,57.19
2017-03-27T00:17:34.157Z,57.38
2017-03-27T00:18:14.778Z,57.28
2017-03-27T00:18:55.492Z,57.28
2017-03-27T00:19:36.151Z,57.19
2017-03-27T00:20:16.780Z,57.19
2017-03-27T00:20:57.504Z,57.19
2017-03-27T00:21:38.128Z,57.19
2017-03-27T00:22:18.760Z,57.48
2017-03-27T00:22:59.452Z,57.38
2017-03-27T00:23:40.171Z,57.28
2017-03-27T00:24:20.837Z,57.38
2017-03-27T00:25:01.479Z,57.48
2017-03-27T00:25:42.201Z,57.57
2017-03-27T00:26:22.883Z,57.86
2017-03-27T00:27:03.514Z,57.57
2017-03-27T00:27:44.227Z,57.86
2017-03-27T00:28:24.856Z,57.76
2017-03-27T00:29:05.488Z,57.95
2017-03-27T00:29:46.181Z,57.67
2017-03-27T00:30:26.889Z,57.86
2017-03-27T00:31:07.561Z,57.76
2017-03-27T00:31:48.206Z,58.15
2017-03-27T00:32:28.921Z,57.86
2017-03-27T00:33:09.620Z,57.95
2017-03-27T00:33:50.248Z,58.34
2017-03-27T00:34:30.958Z,58.05
2017-03-27T00:35:11.626Z,58.15
2017-03-27T00:35:52.259Z,58.15
2017-03-27T00:36:32.910Z,58.15
2017-03-27T00:37:13.669Z,58.05
2017-03-27T00:37:54.341Z,58.15
2017-03-27T00:38:34.976Z,58.05
2017-03-27T00:39:15.662Z,58.15
2017-03-27T00:39:56.338Z,58.08
2017-03-27T00:40:36.961Z,58.05
2017-03-27T00:41:17.609Z,58.05
2017-03-27T00:41:58.260Z,58.24
2017-03-27T00:42:38.890Z,58.24
2017-03-27T00:43:19.586Z,57.86
2017-03-27T00:44:00.227Z,57.95
2017-03-27T00:44:40.860Z,58.24
2017-03-27T00:45:21.561Z,58.24
2017-03-27T00:46:02.285Z,58.24
2017-03-27T00:46:42.942Z,58.15
2017-03-27T00:47:23.583Z,58.15
2017-03-27T00:48:04.210Z,58.24
2017-03-27T00:48:44.873Z,58.34
2017-03-27T00:49:25.520Z,58.24
2017-03-27T00:50:06.244Z,58.24
2017-03-27T00:50:46.921Z,58.24
2017-03-27T00:51:27.540Z,58.05
2017-03-27T00:52:08.244Z,57.86
2017-03-27T00:52:48.926Z,58.15
2017-03-27T00:53:29.551Z,58.24
2017-03-27T00:54:10.235Z,58.05
2017-03-27T00:54:50.953Z,58.24
2017-03-27T00:55:31.659Z,58.34
2017-03-27T00:56:12.305Z,58.53
2017-03-27T00:56:52.993Z,58.34
2017-03-27T00:57:33.643Z,58.15
2017-03-27T00:58:14.271Z,58.44
2017-03-27T00:58:55.034Z,58.44
2017-03-27T00:59:35.743Z,58.44
2017-03-27T01:00:16.435Z,58.05
2017-03-27T01:00:57.121Z,58.05
2017-03-27T01:01:37.795Z,58.53
2017-03-27T01:02:18.443Z,58.44
2017-03-27T01:02:59.069Z,58.53
2017-03-27T01:03:39.736Z,58.91
2017-03-27T01:04:20.427Z,58.91
2017-03-27T01:05:01.056Z,58.91
2017-03-27T01:05:41.758Z,58.72
2017-03-27T01:06:22.423Z,58.72
2017-03-27T01:07:03.069Z,58.91
2017-03-27T01:07:43.678Z,58.62
2017-03-27T01:08:24.395Z,58.81
2017-03-27T01:09:05.051Z,58.62
2017-03-27T01:09:45.719Z,58.44
2017-03-27T01:10:26.423Z,58.62
2017-03-27T01:11:07.104Z,59.01
2017-03-27T01:11:47.730Z,59.01
2017-03-27T01:12:28.445Z,58.81
2017-03-27T01:13:09.080Z,58.81
2017-03-27T01:13:49.702Z,58.81
2017-03-27T01:14:30.454Z,58.81
2017-03-27T01:15:11.148Z,58.72
2017-03-27T01:15:51.789Z,58.91
2017-03-27T01:16:32.410Z,58.91
2017-03-27T01:17:13.079Z,58.91
2017-03-27T01:17:53.762Z,58.91
2017-03-27T01:18:34.385Z,59.2
2017-03-27T01:19:15.075Z,59.11
2017-03-27T01:19:55.762Z,59.3
2017-03-27T01:20:36.388Z,59.11
2017-03-27T01:21:17.143Z,59.11
2017-03-27T01:21:57.836Z,59.2
2017-03-27T01:22:38.539Z,59.01
2017-03-27T01:23:19.078Z,59.2
2017-03-27T01:23:59.757Z,59.39
2017-03-27T01:24:40.447Z,59.2
2017-03-27T01:25:21.122Z,59.39
2017-03-27T01:26:01.842Z,59.48
2017-03-27T01:26:42.473Z,59.77
2017-03-27T01:27:23.093Z,59.39
2017-03-27T01:28:03.755Z,59.68
2017-03-27T01:28:44.405Z,59.39
2017-03-27T01:29:25.031Z,59.3
2017-03-27T01:30:05.758Z,59.77
2017-03-27T01:30:46.385Z,59.58
2017-03-27T01:31:27.010Z,59.48
2017-03-27T01:32:07.713Z,59.68
2017-03-27T01:32:48.417Z,59.2
2017-03-27T01:33:29.168Z,59.48
2017-03-27T01:34:09.809Z,59.8
2017-03-27T01:34:50.476Z,59.87
2017-03-27T01:35:31.129Z,59.68
2017-03-27T01:36:11.754Z,59.77
2017-03-27T01:36:52.430Z,59.77
2017-03-27T01:37:33.106Z,59.77
2017-03-27T01:38:13.732Z,59.48
2017-03-27T01:38:54.455Z,59.39
2017-03-27T01:39:35.166Z,59.39
2017-03-27T01:40:15.817Z,59.97
2017-03-27T01:40:56.463Z,59.77
2017-03-27T01:41:37.191Z,59.87
2017-03-27T01:42:17.862Z,59.97
2017-03-27T01:42:58.488Z,60.25
2017-03-27T01:43:39.202Z,59.77
2017-03-27T01:44:19.870Z,60.16
2017-03-27T01:45:00.494Z,60.09
2017-03-27T01:45:41.170Z,60.16
2017-03-27T01:46:21.891Z,60.06
2017-03-27T01:47:02.541Z,60.06
2017-03-27T01:47:43.183Z,60.06
2017-03-27T01:48:23.837Z,59.87
2017-03-27T01:49:04.477Z,59.87
2017-03-27T01:49:45.101Z,60
2017-03-27T01:50:25.719Z,60.09
2017-03-27T01:51:06.416Z,59.87
2017-03-27T01:51:47.057Z,59.77
2017-03-27T01:52:27.778Z,59.87
2017-03-27T01:53:08.445Z,59.9
2017-03-27T01:53:49.073Z,60.19
2017-03-27T01:54:29.795Z,59.97
2017-03-27T01:55:10.519Z,60.25
2017-03-27T01:55:51.199Z,60.06
2017-03-27T01:56:31.836Z,60.25
2017-03-27T01:57:12.550Z,60.06
2017-03-27T01:57:53.170Z,60.54
2017-03-27T01:58:33.795Z,60.54
2017-03-27T01:59:14.496Z,60.64
2017-03-27T01:59:55.176Z,60.83
2017-03-27T02:00:35.800Z,60.83
2017-03-27T02:01:16.550Z,60.54
2017-03-27T02:01:57.271Z,60.64
2017-03-27T02:02:37.924Z,60.73
2017-03-27T02:03:18.563Z,60.73
2017-03-27T02:03:59.316Z,60.64
2017-03-27T02:04:40.052Z,60.64
2017-03-27T02:05:20.677Z,60.54
2017-03-27T02:06:01.397Z,60.44
2017-03-27T02:06:42.092Z,60.64
2017-03-27T02:07:22.721Z,60.44
2017-03-27T02:08:03.360Z,60.54
2017-03-27T02:08:44.025Z,60.35
2017-03-27T02:09:24.760Z,60.54
2017-03-27T02:10:05.384Z,60.57
2017-03-27T02:10:46.097Z,60.44
2017-03-27T02:11:26.732Z,60.35
2017-03-27T02:12:07.359Z,60.44
2017-03-27T02:12:47.988Z,60.57
2017-03-27T02:13:28.666Z,60.73
2017-03-27T02:14:09.291Z,60.64
2017-03-27T02:14:49.988Z,60.44
2017-03-27T02:15:30.728Z,60.44
2017-03-27T02:16:11.397Z,60.47
2017-03-27T02:16:52.015Z,60.73
2017-03-27T02:17:32.666Z,60.67
2017-03-27T02:18:13.291Z,60.54
2017-03-27T02:18:53.921Z,60.73
2017-03-27T02:19:34.612Z,60.83
2017-03-27T02:20:15.290Z,60.44
2017-03-27T02:20:55.917Z,60.73
2017-03-27T02:21:37.373Z,60.83
2017-03-27T02:22:17.998Z,60.93
2017-03-27T02:22:58.623Z,60.86
2017-03-27T02:23:39.302Z,60.83
2017-03-27T02:24:19.926Z,60.83
2017-03-27T02:25:00.546Z,60.67
2017-03-27T02:25:41.243Z,60.73
2017-03-27T02:26:21.871Z,60.67
2017-03-27T02:27:02.486Z,60.73
2017-03-27T02:27:43.115Z,60.54
2017-03-27T02:28:23.740Z,60.93
2017-03-27T02:29:04.402Z,60.44
2017-03-27T02:29:45.048Z,60.83
2017-03-27T02:30:25.680Z,60.73
2017-03-27T02:31:06.327Z,60.44
2017-03-27T02:31:46.956Z,60.44
2017-03-27T02:32:27.580Z,60.35
2017-03-27T02:33:08.330Z,60.35
2017-03-27T02:33:49.004Z,60.54
2017-03-27T02:34:29.687Z,60.35
2017-03-27T02:35:10.325Z,60.73
2017-03-27T02:35:50.999Z,60.73
2017-03-27T02:36:31.626Z,60.54
2017-03-27T02:37:12.250Z,60.44
2017-03-27T02:37:52.880Z,60.35
2017-03-27T02:38:33.592Z,60.83
2017-03-27T02:39:14.218Z,60.35
2017-03-27T02:39:54.889Z,60.54
2017-03-27T02:40:35.533Z,60.67
2017-03-27T02:41:16.164Z,60.54
2017-03-27T02:41:56.811Z,60.57
2017-03-27T02:42:37.460Z,60.86
2017-03-27T02:43:18.090Z,60.64
2017-03-27T02:43:58.809Z,60.57
2017-03-27T02:44:39.448Z,60.35
2017-03-27T02:45:20.081Z,60.73
2017-03-27T02:46:00.801Z,60.73
2017-03-27T02:46:41.492Z,60.16
2017-03-27T02:47:22.136Z,60.35
2017-03-27T02:48:02.774Z,60.16
2017-03-27T02:48:43.459Z,60.76
2017-03-27T02:49:24.122Z,60.64
2017-03-27T02:50:04.745Z,60.44
2017-03-27T02:50:45.445Z,60.44
2017-03-27T02:51:26.114Z,60.76
2017-03-27T02:52:06.739Z,60.25
2017-03-27T02:52:47.389Z,60.44
2017-03-27T02:53:28.073Z,60.16
2017-03-27T02:54:08.730Z,60.54
2017-03-27T02:54:49.417Z,60.86
2017-03-27T02:55:30.146Z,60.54
2017-03-27T02:56:10.799Z,60.73
2017-03-27T02:56:51.426Z,60.54
2017-03-27T02:57:32.058Z,60.44
2017-03-27T02:58:12.732Z,60.54
2017-03-27T02:58:53.394Z,60.73
2017-03-27T02:59:34.087Z,60.44
2017-03-27T03:00:14.858Z,60.44
2017-03-27T03:00:55.484Z,60.44
2017-03-27T03:01:36.149Z,60.44
2017-03-27T03:02:16.870Z,60.57
2017-03-27T03:02:57.519Z,60.35
2017-03-27T03:03:38.192Z,60.35
2017-03-27T03:04:18.908Z,60.73
2017-03-27T03:04:59.575Z,60.54
2017-03-27T03:05:40.204Z,60.73
2017-03-27T03:06:20.917Z,60.35
2017-03-27T03:07:01.549Z,60.35
2017-03-27T03:07:42.169Z,60.73
2017-03-27T03:08:23.543Z,60.83
2017-03-27T03:09:04.183Z,60.73
2017-03-27T03:09:44.810Z,60.83
2017-03-27T03:10:25.419Z,60.64
2017-03-27T03:11:06.051Z,60.73
2017-03-27T03:11:46.690Z,60.64
2017-03-27T03:12:27.389Z,60.54
2017-03-27T03:13:08.008Z,60.64
2017-03-27T03:13:48.633Z,60.64
2017-03-27T03:14:29.365Z,60.54
2017-03-27T03:15:10.053Z,60.44
2017-03-27T03:15:50.718Z,60.64
2017-03-27T03:16:31.457Z,60.54
2017-03-27T03:17:12.186Z,60.73
2017-03-27T03:17:52.813Z,60.44
2017-03-27T03:18:33.438Z,60.73
2017-03-27T03:19:14.098Z,60.76
2017-03-27T03:19:54.719Z,60.73
2017-03-27T03:20:35.413Z,60.25
2017-03-27T03:21:16.065Z,60.44
2017-03-27T03:21:56.779Z,60.44
2017-03-27T03:22:37.310Z,60.44
2017-03-27T03:23:18.012Z,60.44
2017-03-27T03:23:58.634Z,60.16
2017-03-27T03:24:39.284Z,60.25
2017-03-27T03:25:19.956Z,60.35
2017-03-27T03:26:00.584Z,60.44
2017-03-27T03:26:41.208Z,60.06
2017-03-27T03:27:21.876Z,60.16
2017-03-27T03:28:02.502Z,60.25
2017-03-27T03:28:43.128Z,60.44
2017-03-27T03:29:23.822Z,60.73
2017-03-27T03:30:04.480Z,60.83
2017-03-27T03:30:45.105Z,60.44
2017-03-27T03:31:25.808Z,60.16
2017-03-27T03:32:06.519Z,60.16
2017-03-27T03:32:47.145Z,60.38
2017-03-27T03:33:27.832Z,60.25
2017-03-27T03:34:08.457Z,60.16
2017-03-27T03:34:49.095Z,60.35
2017-03-27T03:35:29.734Z,60.44
2017-03-27T03:36:10.433Z,60.06
2017-03-27T03:36:51.064Z,60.16
2017-03-27T03:37:31.745Z,60.16
2017-03-27T03:38:12.429Z,60.16
2017-03-27T03:38:53.093Z,60.35
2017-03-27T03:39:33.741Z,60.25
2017-03-27T03:40:14.458Z,60.16
2017-03-27T03:40:55.085Z,60.44
2017-03-27T03:41:35.705Z,60.83
2017-03-27T03:42:16.409Z,60.35
2017-03-27T03:42:57.123Z,60.73
2017-03-27T03:43:37.765Z,60.64
2017-03-27T03:44:18.460Z,60.64
2017-03-27T03:44:59.163Z,60.73
2017-03-27T03:45:39.838Z,60.73
2017-03-27T03:46:20.451Z,60.54
2017-03-27T03:47:01.124Z,60.54
2017-03-27T03:47:41.800Z,60.54
2017-03-27T03:48:22.422Z,60.44
2017-03-27T03:49:03.118Z,60.44
2017-03-27T03:49:43.795Z,60.64
2017-03-27T03:50:24.425Z,60.73
2017-03-27T03:51:05.144Z,60.54
2017-03-27T03:51:45.771Z,60.54
2017-03-27T03:52:26.395Z,60.44
2017-03-27T03:53:07.999Z,60.73
2017-03-27T03:53:48.659Z,60.73
2017-03-27T03:54:29.289Z,60.54
2017-03-27T03:55:09.997Z,60.35
2017-03-27T03:55:50.611Z,60.54
2017-03-27T03:56:31.236Z,60.64
2017-03-27T03:57:11.963Z,60.54
2017-03-27T03:57:52.592Z,60.35
2017-03-27T03:58:33.241Z,60.54
2017-03-27T03:59:13.845Z,60.35
2017-03-27T03:59:54.501Z,60.44
2017-03-27T04:00:35.132Z,60.44
2017-03-27T04:01:15.788Z,60.44
2017-03-27T04:01:56.508Z,60.44
2017-03-27T04:02:37.183Z,60.54
2017-03-27T04:03:17.826Z,60.64
2017-03-27T04:03:58.447Z,60.73
2017-03-27T04:04:39.115Z,60.73
2017-03-27T04:05:19.729Z,60.54
2017-03-27T04:06:00.459Z,60.44
2017-03-27T04:06:41.169Z,60.64
2017-03-27T04:07:21.795Z,60.47
2017-03-27T04:08:02.423Z,60.54
2017-03-27T04:08:43.128Z,60.54
2017-03-27T04:09:23.752Z,60.35
2017-03-27T04:10:04.382Z,60.44
2017-03-27T04:10:45.044Z,60.73
2017-03-27T04:11:25.673Z,60.93
2017-03-27T04:12:06.354Z,60.54
2017-03-27T04:12:47.081Z,60.73
2017-03-27T04:13:27.769Z,60.73
2017-03-27T04:14:08.410Z,60.83
2017-03-27T04:14:49.127Z,60.73
2017-03-27T04:15:29.820Z,60.83
2017-03-27T04:16:10.443Z,60.54
2017-03-27T04:16:51.070Z,60.83
2017-03-27T04:17:31.760Z,60.73
2017-03-27T04:18:12.379Z,60.93
2017-03-27T04:18:53.076Z,60.83
2017-03-27T04:19:33.734Z,60.93
2017-03-27T04:20:14.364Z,60.83
2017-03-27T04:20:54.990Z,60.67
2017-03-27T04:21:35.666Z,60.93
2017-03-27T04:22:16.383Z,60.76
2017-03-27T04:22:56.921Z,60.73
2017-03-27T04:23:37.577Z,60.86
2017-03-27T04:24:18.201Z,60.86
2017-03-27T04:24:58.824Z,60.73
2017-03-27T04:25:39.525Z,60.73
2017-03-27T04:26:20.153Z,60.67
2017-03-27T04:27:00.796Z,60.64
2017-03-27T04:27:41.492Z,60.54
2017-03-27T04:28:22.117Z,60.73
2017-03-27T04:29:02.742Z,60.83
2017-03-27T04:29:43.410Z,60.54
2017-03-27T04:30:24.035Z,60.83
2017-03-27T04:31:04.667Z,60.73
2017-03-27T04:31:45.347Z,60.73
2017-03-27T04:32:26.056Z,60.64
2017-03-27T04:33:06.682Z,60.73
2017-03-27T04:33:47.361Z,61.11
2017-03-27T04:34:28.004Z,60.83
2017-03-27T04:35:08.633Z,61.11
2017-03-27T04:35:49.275Z,61.11
2017-03-27T04:36:29.935Z,61.11
2017-03-27T04:37:10.557Z,61.15
2017-03-27T04:37:51.237Z,61.69
2017-03-27T04:38:31.901Z,61.34
2017-03-27T04:39:12.530Z,61.4
2017-03-27T04:39:53.207Z,61.31
2017-03-27T04:40:33.848Z,61.5
2017-03-27T04:41:14.475Z,61.5
2017-03-27T04:41:55.170Z,61.4
2017-03-27T04:42:35.892Z,61.5
2017-03-27T04:43:16.540Z,61.5
2017-03-27T04:43:57.233Z,61.4
2017-03-27T04:44:37.945Z,61.5
2017-03-27T04:45:18.590Z,61.6
2017-03-27T04:45:59.211Z,61.11
2017-03-27T04:46:39.847Z,61.6
2017-03-27T04:47:20.525Z,61.5
2017-03-27T04:48:01.137Z,61.5
2017-03-27T04:48:41.852Z,61.6
2017-03-27T04:49:22.481Z,61.21
2017-03-27T04:50:03.111Z,61.4
2017-03-27T04:50:43.825Z,61.5
2017-03-27T04:51:24.448Z,61.5
2017-03-27T04:52:05.078Z,61.34
2017-03-27T04:52:45.738Z,61.31
2017-03-27T04:53:26.367Z,61.69
2017-03-27T04:54:06.995Z,61.6
2017-03-27T04:54:47.649Z,61.6
2017-03-27T04:55:28.282Z,61.79
2017-03-27T04:56:08.911Z,61.79
2017-03-27T04:56:49.539Z,61.6
2017-03-27T04:57:30.192Z,61.88
2017-03-27T04:58:10.820Z,61.6
2017-03-27T04:58:51.505Z,61.82
2017-03-27T04:59:32.144Z,61.31
2017-03-27T05:00:12.769Z,61.5
2017-03-27T05:00:53.395Z,61.69
2017-03-27T05:01:34.085Z,61.6
2017-03-27T05:02:14.721Z,61.6
2017-03-27T05:02:55.352Z,61.6
2017-03-27T05:03:36.047Z,61.91
2017-03-27T05:04:16.772Z,61.69
2017-03-27T05:04:57.431Z,61.79
2017-03-27T05:05:38.075Z,61.69
2017-03-27T05:06:18.826Z,61.43
2017-03-27T05:06:59.455Z,61.88
2017-03-27T05:07:40.091Z,61.79
2017-03-27T05:08:20.720Z,61.5
2017-03-27T05:09:01.346Z,61.4
2017-03-27T05:09:42.051Z,61.4
2017-03-27T05:10:22.734Z,61.4
2017-03-27T05:11:03.362Z,61.4
2017-03-27T05:11:43.992Z,61.5
2017-03-27T05:12:24.679Z,61.11
2017-03-27T05:13:05.320Z,61.6
2017-03-27T05:13:45.964Z,61.21
2017-03-27T05:14:26.595Z,61.31
2017-03-27T05:15:07.307Z,61.31
2017-03-27T05:15:47.978Z,61.43
2017-03-27T05:16:28.658Z,61.11
2017-03-27T05:17:09.401Z,61.4
2017-03-27T05:17:50.027Z,61.31
2017-03-27T05:18:30.676Z,61.34
2017-03-27T05:19:11.305Z,61.15
2017-03-27T05:19:51.930Z,61.21
2017-03-27T05:20:32.603Z,61.31
2017-03-27T05:21:13.316Z,61.43
2017-03-27T05:21:53.937Z,61.02
2017-03-27T05:22:34.565Z,61.11
2017-03-27T05:23:15.251Z,61.4
2017-03-27T05:23:55.907Z,61.34
2017-03-27T05:24:36.550Z,61.4
2017-03-27T05:25:17.208Z,61.4
2017-03-27T05:25:57.869Z,61.31
2017-03-27T05:26:38.505Z,61.5
2017-03-27T05:27:19.204Z,61.4
2017-03-27T05:27:59.987Z,61.31
2017-03-27T05:28:40.632Z,61.5
2017-03-27T05:29:21.251Z,61.43
2017-03-27T05:30:01.869Z,61.53
2017-03-27T05:30:42.502Z,61.4
2017-03-27T05:31:23.184Z,61.53
2017-03-27T05:32:03.889Z,61.6
2017-03-27T05:32:44.559Z,61.43
2017-03-27T05:33:25.198Z,61.21
2017-03-27T05:34:05.861Z,61.31
2017-03-27T05:34:46.544Z,61.43
2017-03-27T05:35:27.203Z,61.5
2017-03-27T05:36:07.883Z,61.5
2017-03-27T05:36:48.537Z,61.31
2017-03-27T05:37:29.161Z,61.4
2017-03-27T05:38:09.806Z,61.31
2017-03-27T05:38:50.437Z,61.4
2017-03-27T05:39:31.057Z,61.21
2017-03-27T05:40:11.760Z,61.53
2017-03-27T05:40:52.423Z,61.6
2017-03-27T05:41:33.066Z,61.31
2017-03-27T05:42:13.768Z,61.43
2017-03-27T05:42:54.468Z,61.5
2017-03-27T05:43:35.232Z,61.5
2017-03-27T05:44:15.874Z,61.43
2017-03-27T05:44:56.526Z,61.6
2017-03-27T05:45:37.189Z,61.6
2017-03-27T05:46:17.814Z,61.72
2017-03-27T05:46:58.551Z,61.63
2017-03-27T05:47:39.206Z,60.93
2017-03-27T05:48:19.829Z,60.96
2017-03-27T05:49:00.507Z,61.69
2017-03-27T05:49:41.216Z,61.4
2017-03-27T05:50:21.872Z,61.69
2017-03-27T05:51:02.514Z,61.53
2017-03-27T05:51:43.238Z,61.43
2017-03-27T05:52:23.918Z,61.4
2017-03-27T05:53:04.551Z,61.43
2017-03-27T05:53:45.270Z,61.4
2017-03-27T05:54:25.892Z,61.11
2017-03-27T05:55:06.518Z,61.4
2017-03-27T05:55:47.196Z,61.11
2017-03-27T05:56:27.825Z,61.4
2017-03-27T05:57:08.446Z,61.11
2017-03-27T05:57:49.129Z,61.21
2017-03-27T05:58:29.861Z,61.4
2017-03-27T05:59:10.555Z,61.21
2017-03-27T05:59:51.210Z,61.4
2017-03-27T06:00:31.894Z,61.34
2017-03-27T06:01:12.612Z,61.21
2017-03-27T06:01:53.245Z,61.34
2017-03-27T06:02:33.917Z,61.5
2017-03-27T06:03:14.545Z,61.43
2017-03-27T06:03:55.169Z,61.4
2017-03-27T06:04:35.892Z,61.43
2017-03-27T06:05:16.604Z,61.53
2017-03-27T06:05:57.248Z,61.5
2017-03-27T06:06:37.891Z,61.53
2017-03-27T06:07:18.611Z,61.5
2017-03-27T06:07:59.231Z,61.5
2017-03-27T06:08:39.853Z,61.43
2017-03-27T06:09:20.553Z,61.43
2017-03-27T06:10:01.230Z,61.53
2017-03-27T06:10:41.864Z,61.31
2017-03-27T06:11:22.583Z,61.4
2017-03-27T06:12:03.200Z,61.31
2017-03-27T06:12:43.822Z,61.21
2017-03-27T06:13:24.549Z,61.4
2017-03-27T06:14:05.278Z,61.4
2017-03-27T06:14:45.956Z,61.11
2017-03-27T06:15:26.581Z,61.4
2017-03-27T06:16:07.272Z,61.53
2017-03-27T06:16:47.970Z,61.21
2017-03-27T06:17:28.600Z,61.11
2017-03-27T06:18:09.302Z,61.21
2017-03-27T06:18:49.927Z,61.5
2017-03-27T06:19:30.556Z,61.31
2017-03-27T06:20:11.260Z,61.43
2017-03-27T06:20:51.989Z,61.4
2017-03-27T06:21:32.628Z,61.4
2017-03-27T06:22:13.265Z,61.4
2017-03-27T06:22:53.893Z,61.4
2017-03-27T06:23:34.635Z,61.43
2017-03-27T06:24:15.277Z,61.53
2017-03-27T06:24:55.933Z,61.5
2017-03-27T06:25:36.607Z,61.6
2017-03-27T06:26:17.235Z,61.69
2017-03-27T06:26:57.955Z,61.69
2017-03-27T06:27:38.623Z,61.72
2017-03-27T06:28:19.236Z,61.69
2017-03-27T06:28:59.918Z,61.88
2017-03-27T06:29:40.648Z,61.79
2017-03-27T06:30:21.285Z,61.69
2017-03-27T06:31:01.929Z,61.21
2017-03-27T06:31:42.691Z,61.21
2017-03-27T06:32:23.403Z,61.34
2017-03-27T06:33:04.022Z,61.4
2017-03-27T06:33:44.725Z,61.43
2017-03-27T06:34:25.407Z,61.31
2017-03-27T06:35:06.046Z,61.5
2017-03-27T06:35:46.660Z,61.53
2017-03-27T06:36:28.354Z,61.43
2017-03-27T06:37:09.028Z,61.6
2017-03-27T06:37:49.666Z,61.31
2017-03-27T06:38:30.397Z,61.53
2017-03-27T06:39:11.117Z,61.5
2017-03-27T06:39:51.742Z,61.4
2017-03-27T06:40:32.456Z,61.63
2017-03-27T06:41:13.165Z,61.53
2017-03-27T06:41:53.837Z,61.4
2017-03-27T06:42:34.458Z,61.24
2017-03-27T06:43:15.099Z,61.21
2017-03-27T06:43:55.766Z,61.31
2017-03-27T06:44:36.385Z,61.4
2017-03-27T06:45:17.107Z,61.21
2017-03-27T06:45:57.814Z,61.21
2017-03-27T06:46:38.441Z,61.53
2017-03-27T06:47:19.136Z,61.34
2017-03-27T06:47:59.810Z,61.11
2017-03-27T06:48:40.433Z,61.5
2017-03-27T06:49:21.115Z,61.88
2017-03-27T06:50:01.785Z,61.69
2017-03-27T06:50:42.434Z,61.4
2017-03-27T06:51:23.041Z,61.31
2017-03-27T06:52:03.745Z,61.63
2017-03-27T06:52:44.407Z,61.6
2017-03-27T06:53:25.048Z,61.69
2017-03-27T06:54:05.772Z,61.5
2017-03-27T06:54:46.497Z,61.69
2017-03-27T06:55:27.118Z,61.69
2017-03-27T06:56:08.518Z,61.69
2017-03-27T06:56:49.147Z,61.79
2017-03-27T06:57:29.774Z,61.69
2017-03-27T06:58:10.433Z,61.6
2017-03-27T06:58:51.070Z,61.4
2017-03-27T06:59:31.694Z,61.43
2017-03-27T07:00:12.361Z,61.6
2017-03-27T07:00:53.075Z,61.69
2017-03-27T07:01:33.611Z,61.5
2017-03-27T07:02:14.363Z,61.5
2017-03-27T07:02:54.978Z,61.82
2017-03-27T07:03:35.602Z,61.21
2017-03-27T07:04:16.243Z,61.31
2017-03-27T07:04:56.874Z,61.79
2017-03-27T07:05:37.500Z,61.79
2017-03-27T07:06:18.176Z,61.21
2017-03-27T07:06:58.808Z,61.43
2017-03-27T07:07:39.433Z,61.53
2017-03-27T07:08:20.106Z,61.21
2017-03-27T07:09:00.733Z,61.53
2017-03-27T07:09:41.366Z,61.4
2017-03-27T07:10:22.032Z,61.11
2017-03-27T07:11:02.707Z,61.21
2017-03-27T07:11:43.332Z,61.31
2017-03-27T07:12:24.038Z,61.53
2017-03-27T07:13:04.704Z,61.5
2017-03-27T07:13:45.322Z,61.21
2017-03-27T07:14:25.987Z,61.24
2017-03-27T07:15:06.716Z,61.24
2017-03-27T07:15:47.360Z,61.43
2017-03-27T07:16:28.004Z,61.34
2017-03-27T07:17:08.725Z,61.31
2017-03-27T07:17:49.402Z,61.4
2017-03-27T07:18:30.027Z,61.34
2017-03-27T07:19:10.754Z,61.31
2017-03-27T07:19:51.380Z,61.31
2017-03-27T07:20:32.016Z,61.4
2017-03-27T07:21:12.716Z,61.69
2017-03-27T07:21:53.420Z,61.34
2017-03-27T07:22:34.046Z,61.63
2017-03-27T07:23:14.730Z,61.63
2017-03-27T07:23:55.455Z,61.4
2017-03-27T07:24:36.200Z,61.43
2017-03-27T07:25:16.849Z,61.69
2017-03-27T07:25:57.507Z,61.34
2017-03-27T07:26:38.160Z,61.5
2017-03-27T07:27:18.783Z,61.53
2017-03-27T07:27:59.444Z,61.53
2017-03-27T07:28:40.147Z,61.53
2017-03-27T07:29:20.775Z,61.63
2017-03-27T07:30:01.471Z,61.34
2017-03-27T07:30:42.197Z,61.11
2017-03-27T07:31:22.837Z,61.4
2017-03-27T07:32:03.483Z,61.6
2017-03-27T07:32:44.139Z,61.53
2017-03-27T07:33:24.810Z,61.31
2017-03-27T07:34:05.448Z,61.43
2017-03-27T07:34:46.158Z,61.5
2017-03-27T07:35:26.814Z,61.53
2017-03-27T07:36:07.439Z,61.4
2017-03-27T07:36:48.081Z,61.53
2017-03-27T07:37:28.743Z,61.53
2017-03-27T07:38:09.368Z,61.4
2017-03-27T07:38:50.084Z,61.4
2017-03-27T07:39:30.724Z,61.31
2017-03-27T07:40:11.348Z,61.43
2017-03-27T07:40:52.060Z,61.43
2017-03-27T07:41:32.764Z,61.34
2017-03-27T07:42:13.421Z,61.31
2017-03-27T07:42:54.064Z,61.4
2017-03-27T07:43:34.834Z,61.63
2017-03-27T07:44:15.499Z,61.53
2017-03-27T07:44:56.131Z,61.34
2017-03-27T07:45:36.832Z,61.43
2017-03-27T07:46:17.453Z,61.43
2017-03-27T07:46:58.083Z,61.53
2017-03-27T07:47:38.783Z,61.43
2017-03-27T07:48:19.496Z,61.63
2017-03-27T07:49:00.143Z,61.43
2017-03-27T07:49:40.788Z,61.53
2017-03-27T07:50:21.443Z,61.63
2017-03-27T07:51:02.124Z,61.34
2017-03-27T07:51:42.755Z,61.31
2017-03-27T07:52:23.443Z,61.4
2017-03-27T07:53:04.122Z,61.53
2017-03-27T07:53:44.750Z,61.53
2017-03-27T07:54:25.466Z,61.15
2017-03-27T07:55:06.095Z,61.21
2017-03-27T07:55:46.723Z,61.34
2017-03-27T07:56:27.420Z,61.43
2017-03-27T07:57:08.129Z,61.24
2017-03-27T07:57:48.802Z,61.4
2017-03-27T07:58:29.447Z,61.53
2017-03-27T07:59:10.177Z,61.43
2017-03-27T07:59:50.851Z,61.4
2017-03-27T08:00:31.475Z,61.34
2017-03-27T08:01:12.139Z,61.15
2017-03-27T08:01:52.816Z,61.53
2017-03-27T08:02:33.436Z,61.24
2017-03-27T08:03:14.126Z,61.4
2017-03-27T08:03:54.771Z,61.43
2017-03-27T08:04:35.405Z,61.6
2017-03-27T08:05:16.079Z,61.43
2017-03-27T08:05:56.796Z,61.72
2017-03-27T08:06:37.461Z,61.82
2017-03-27T08:07:18.114Z,61.34
2017-03-27T08:07:58.834Z,61.34
2017-03-27T08:08:39.506Z,61.53
2017-03-27T08:09:20.136Z,61.72
2017-03-27T08:10:00.848Z,61.72
2017-03-27T08:10:41.477Z,61.43
2017-03-27T08:11:22.105Z,61.6
2017-03-27T08:12:02.801Z,61.72
2017-03-27T08:12:43.534Z,61.6
2017-03-27T08:13:24.187Z,61.69
2017-03-27T08:14:04.830Z,61.72
2017-03-27T08:14:45.562Z,61.63
2017-03-27T08:15:26.233Z,61.63
2017-03-27T08:16:06.861Z,61.72
2017-03-27T08:16:47.572Z,61.69
2017-03-27T08:17:28.201Z,61.72
2017-03-27T08:18:08.832Z,61.53
2017-03-27T08:18:49.534Z,61.82
2017-03-27T08:19:30.247Z,61.79
2017-03-27T08:20:10.910Z,61.53
2017-03-27T08:20:51.558Z,61.15
2017-03-27T08:21:32.283Z,61.24
2017-03-27T08:22:12.961Z,61.6
2017-03-27T08:22:53.586Z,61.82
2017-03-27T08:23:34.249Z,61.72
2017-03-27T08:24:14.872Z,61.63
2017-03-27T08:24:55.504Z,61.72
2017-03-27T08:25:36.162Z,61.4
2017-03-27T08:26:16.812Z,61.72
2017-03-27T08:26:57.445Z,61.72
2017-03-27T08:27:38.174Z,61.63
2017-03-27T08:28:18.914Z,61.53
2017-03-27T08:28:59.569Z,61.63
2017-03-27T08:29:40.214Z,61.43
2017-03-27T08:30:20.931Z,62.01
2017-03-27T08:31:01.623Z,62.01
2017-03-27T08:31:42.247Z,62.01
2017-03-27T08:32:22.971Z,61.91
2017-03-27T08:33:03.597Z,61.63
2017-03-27T08:33:44.230Z,62.01
2017-03-27T08:34:24.916Z,61.82
2017-03-27T08:35:05.643Z,61.72
2017-03-27T08:35:46.289Z,61.91
2017-03-27T08:36:26.927Z,62.01
2017-03-27T08:37:07.563Z,62.07
2017-03-27T08:37:48.219Z,62.01
2017-03-27T08:38:28.872Z,62.1
2017-03-27T08:39:09.571Z,62.01
2017-03-27T08:39:50.241Z,61.91
2017-03-27T08:40:30.875Z,61.91
2017-03-27T08:41:11.536Z,61.69
2017-03-27T08:41:52.254Z,61.98
2017-03-27T08:42:32.881Z,61.91
2017-03-27T08:43:13.598Z,62.01
2017-03-27T08:43:54.821Z,61.63
2017-03-27T08:44:35.461Z,62.1
2017-03-27T08:45:16.142Z,61.91
2017-03-27T08:45:56.763Z,62.1
2017-03-27T08:46:37.390Z,62.01